Latest Coastal Weather Observations for Robe Airport

IDS60701

Issued at 11:45 am CST Wednesday 24 September 2014 (issued every 10 minutes, with the page automatically refreshed every 10 minutes)

About coastal observations | Map of coastal stations | Coastal observations for SA | Marine services | Other Formats
Station Details ID: 026105 Name: ROBE AIRFIELD Lat: -37.18 Lon: 139.81 Height: 3.0 m
Data from the previous 72 hours. | See also: Recent months at Robe Airport
Date/Time
CST
Temp

°C
Wind Pressure Rain
since 9am
mm
Weather Cloud Vis
km
Sea
Height
m
Swell
Dir
 
Speed
knots
Gust
knots
hPa Trend Height
m
Period
s
Dir
24/11:30am 19.1 NNW 11 15 1014.3 - 0.0 - - - - - - -
24/11:00am 18.6 NNW 10 13 1014.6 - 0.0 - - - - - - -
24/10:30am 18.7 NNW 11 15 1014.9 - 0.0 - - - - - - -
24/10:00am 18.2 NNW 9 12 1014.8 - 0.0 - - - - - - -
24/09:30am 18.3 NNW 9 12 1014.8 - 0.0 - - - - - - -
24/09:00am 18.2 NNW 7 10 1014.6 - 4.4 - - - - - - -
24/08:30am 17.5 N 5 7 1014.5 - 4.4 - - - - - - -
24/08:00am 16.1 N 5 7 1014.5 - 4.4 - - - - - - -
24/07:30am 15.2 N 4 6 1014.6 - 4.4 - - - - - - -
24/07:00am 12.7 NNE 2 3 1014.5 - 4.4 - - - - - - -
24/06:30am 12.3 NNE 2 4 1014.6 - 4.4 - - - - - - -
24/06:00am 13.3 NE 4 6 1014.4 - 4.4 - - - - - - -
24/05:30am 12.9 N 4 6 1014.4 - 4.4 - - - - - - -
24/05:00am 13.2 N 4 5 1014.3 - 4.4 - - - - - - -
24/04:30am 13.8 NNE 6 7 1014.2 - 4.4 - - - - - - -
24/04:00am 14.5 NNE 8 10 1014.2 - 4.4 - - - - - - -
24/03:30am 14.4 NNE 13 17 1014.2 - 4.4 - - - - - - -
24/03:00am 14.5 NNE 10 13 1014.6 - 4.4 - - - - - - -
24/02:30am 14.4 NNE 7 10 1014.9 - 4.4 - - - - - - -
24/02:00am 14.4 NE 7 8 1015.1 - 4.4 - - - - - - -
24/01:30am 14.6 NE 4 5 1015.5 - 4.4 - - - - - - -
24/01:00am 14.7 NE 6 8 1016.0 - 4.4 - - - - - - -
24/12:30am 15.2 NE 8 9 1016.2 - 4.4 - - - - - - -
24/12:00am 15.4 N 10 14 1016.4 - 4.0 Rain - - - - - -
 
Date/Time
CST
Temp

°C
Wind Pressure Rain
since 9am
mm
Weather Cloud Vis
km
Sea
Height
m
Swell
Dir
 
Speed
knots
Gust
knots
hPa Trend Height
m
Period
s
Dir
23/11:45pm 17.2 NNW 15 26 1016.4 - 3.8 - - - - - - -
23/11:30pm 16.5 NNW 9 14 1016.6 - 3.0 - - - - - - -
23/11:00pm 14.9 W 5 7 1017.4 - 2.8 - - - - - - -
23/10:30pm 14.7 W 2 8 1017.5 - 2.4 - - - - - - -
23/10:00pm 14.8 NNW 2 5 1017.7 - 2.2 - - - - - - -
23/09:30pm 15.1 SE 4 6 1017.4 - 2.0 - - - - - - -
23/09:00pm 15.1 ESE 7 9 1017.5 - 2.0 - - - - - - -
23/08:30pm 14.9 SSE 3 5 1018.2 - 2.0 - - - - - - -
23/08:00pm 15.1 E 2 4 1018.5 - 2.0 - - - - - - -
23/07:30pm 16.4 ESE 6 9 1018.3 - 0.4 - - - - - - -
23/07:00pm 16.3 SE 7 10 1017.3 - 0.4 - - - - - - -
23/06:30pm 15.7 SSE 8 11 1017.4 - 0.4 - - - - - - -
23/06:00pm 16.5 W 6 9 1018.2 - 0.2 Rain - - - - - -
23/05:30pm 18.9 SW 4 7 1017.3 - 0.0 - - - - - - -
23/05:00pm 21.1 S 5 6 1017.1 - 0.0 - - - - - - -
23/04:30pm 21.6 SSE 4 6 1017.1 - 0.0 - - - - - - -
23/04:00pm 21.5 SSE 4 5 1017.5 - 0.0 - - - - - - -
23/03:30pm 21.7 SSW 3 5 1017.9 - 0.0 - - - - - - -
23/03:00pm 22.9 W 3 7 1018.2 - 0.0 - - - - - - -
23/02:30pm 23.6 NW 5 9 1018.5 - 0.0 - - - - - - -
23/02:00pm 24.2 WNW 6 9 1018.8 - 0.0 - - - - - - -
23/01:30pm 23.2 WNW 9 13 1019.3 - 0.0 - - - - - - -
23/01:00pm 22.6 NW 11 14 1019.7 - 0.0 - - - - - - -
23/12:30pm 22.3 NW 11 14 1020.2 - 0.0 - - - - - - -
23/12:00pm 22.5 NW 12 17 1020.7 - 0.0 - - - - - - -
23/11:30am 22.9 NNW 13 19 1021.1 - 0.0 - - - - - - -
23/11:00am 22.8 NNW 14 19 1021.5 - 0.0 - - - - - - -
23/10:30am 22.9 N 14 18 1021.6 - 0.0 - - - - - - -
23/10:00am 22.4 N 16 21 1021.9 - 0.0 - - - - - - -
23/09:30am 21.5 N 14 22 1022.1 - 0.0 - - - - - - -
23/09:00am 20.3 N 12 16 1022.3 - 0.0 - - - - - - -
23/08:30am 17.5 NNE 7 12 1022.4 - 0.0 - - - - - - -
23/08:00am 15.3 NNE 7 11 1022.5 - 0.0 - - - - - - -
23/07:30am 12.9 NNE 5 8 1022.4 - 0.0 - - - - - - -
23/07:00am 11.5 NNE 7 10 1022.3 - 0.0 - - - - - - -
23/06:30am 10.4 NNE 8 10 1022.2 - 0.0 - - - - - - -
23/06:00am 10.2 NNE 7 10 1021.9 - 0.0 - - - - - - -
23/05:30am 9.8 NNE 6 9 1022.0 - 0.0 - - - - - - -
23/05:00am 10.2 NNE 8 11 1021.8 - 0.0 - - - - - - -
23/04:30am 10.3 NNE 9 11 1021.7 - 0.0 - - - - - - -
23/04:00am 9.6 NE 8 10 1021.7 - 0.0 - - - - - - -
23/03:30am 8.8 NE 7 10 1021.7 - 0.0 - - - - - - -
23/03:00am 9.1 NE 7 8 1021.7 - 0.0 - - - - - - -
23/02:30am 8.4 NE 6 7 1021.9 - 0.0 - - - - - - -
23/02:00am 8.7 NE 6 8 1022.2 - 0.0 - - - - - - -
23/01:30am 8.8 NE 6 8 1022.5 - 0.0 - - - - - - -
23/01:00am 9.2 NE 7 9 1022.7 - 0.0 - - - - - - -
23/12:30am 9.1 NE 7 8 1022.9 - 0.0 - - - - - - -
23/12:00am 7.7 ENE 5 6 1023.0 - 0.0 - - - - - - -
 
Date/Time
CST
Temp

°C
Wind Pressure Rain
since 9am
mm
Weather Cloud Vis
km
Sea
Height
m
Swell
Dir
 
Speed
knots
Gust
knots
hPa Trend Height
m
Period
s
Dir
22/11:30pm 8.4 ENE 3 4 1023.1 - 0.0 - - - - - - -
22/11:00pm 9.3 E 3 4 1023.2 - 0.0 - - - - - - -
22/10:30pm 9.3 E 4 5 1023.5 - 0.0 - - - - - - -
22/10:00pm 10.8 SE 3 4 1023.8 - 0.0 - - - - - - -
22/09:30pm 11.1 SE 4 6 1024.0 - 0.0 - - - - - - -
22/09:00pm 11.7 SE 5 6 1024.1 - 0.0 - - - - - - -
22/08:30pm 12.0 SE 3 4 1024.1 - 0.0 - - - - - - -
22/08:00pm 13.4 SSE 6 8 1024.1 - 0.0 - - - - - - -
22/07:30pm 13.3 SSE 6 8 1024.0 - 0.0 - - - - - - -
22/07:00pm 12.1 S 4 5 1023.8 - 0.0 - - - - - - -
22/06:30pm 14.0 SSE 3 4 1023.6 - 0.0 - - - - - - -
22/06:00pm 15.6 SSW 3 5 1023.3 - 0.0 - - - - - - -
22/05:30pm 18.6 SW 4 4 1023.2 - 0.0 - - - - - - -
22/05:00pm 21.7 WSW 2 3 1023.0 - 0.0 - - - - - - -
22/04:30pm 21.9 WNW 4 6 1022.8 - 0.0 - - - - - - -
22/04:00pm 21.8 NW 7 9 1022.8 - 0.0 - - - - - - -
22/03:30pm 21.6 NW 8 10 1023.0 - 0.0 - - - - - - -
22/03:00pm 21.7 NW 9 11 1023.1 - 0.0 - - - - - - -
22/02:30pm 21.9 NW 9 13 1023.3 - 0.0 - - - - - - -
22/02:00pm 21.8 NW 9 13 1023.4 - 0.0 - - - - - - -
22/01:30pm 22.5 NW 10 14 1023.7 - 0.0 - - - - - - -
22/01:00pm 22.1 NNW 12 17 1024.1 - 0.0 - - - - - - -
22/12:30pm 21.9 NNW 14 18 1024.5 - 0.0 - - - - - - -
22/12:00pm 22.0 N 13 19 1024.8 - 0.0 - - - - - - -
22/11:30am 21.5 N 13 19 1025.2 - 0.0 - - - - - - -
22/11:00am 21.0 N 14 19 1025.7 - 0.0 - - - - - - -
22/10:30am 19.8 N 14 19 1026.0 - 0.0 - - - - - - -
22/10:00am 19.1 N 12 16 1026.4 - 0.0 - - - - - - -
22/09:30am 17.8 N 12 15 1026.7 - 0.0 - - - - - - -
22/09:00am 16.6 N 7 11 1026.7 - 0.0 - - - - - - -
22/08:30am 13.7 N 8 11 1026.9 - 0.0 - - - - - - -
22/08:00am 11.6 NNE 8 12 1026.9 - 0.0 - - - - - - -
22/07:30am 9.6 NNE 10 13 1026.6 - 0.0 - - - - - - -
22/07:00am 7.6 NE 7 10 1026.7 - 0.0 - - - - - - -
22/06:30am 6.1 NE 7 9 1026.7 - 0.0 - - - - - - -
22/06:00am 6.2 NE 8 11 1026.5 - 0.0 - - - - - - -
22/05:30am 6.3 NE 8 10 1026.2 - 0.0 - - - - - - -
22/05:00am 5.9 NE 8 9 1026.2 - 0.0 - - - - - - -
22/04:30am 4.3 NE 6 7 1026.2 - 0.0 - - - - - - -
22/04:00am 4.2 NE 4 5 1026.3 - 0.0 - - - - - - -
22/03:30am 3.8 NE 5 6 1026.3 - 0.0 - - - - - - -
22/03:00am 3.6 ENE 5 6 1026.4 - 0.0 - - - - - - -
22/02:30am 4.0 ENE 4 5 1026.6 - 0.0 - - - - - - -
22/02:00am 4.6 ENE 3 5 1027.1 - 0.0 - - - - - - -
22/01:30am 4.9 ENE 2 3 1027.2 - 0.0 - - - - - - -
22/01:00am 5.4 ENE 2 4 1027.3 - 0.0 - - - - - - -
22/12:30am 5.9 E 1 5 1027.3 - 0.0 - - - - - - -
22/12:00am 6.2 CALM 0 1 1027.4 - 0.0 - - - - - - -
 
Date/Time
CST
Temp

°C
Wind Pressure Rain
since 9am
mm
Weather Cloud Vis
km
Sea
Height
m
Swell
Dir
 
Speed
knots
Gust
knots
hPa Trend Height
m
Period
s
Dir
21/11:30pm 6.3 E 1 2 1027.5 - 0.0 - - - - - - -
21/11:00pm 6.1 E 2 3 1027.9 - 0.0 - - - - - - -
21/10:30pm 6.0 SE 3 5 1028.1 - 0.0 - - - - - - -
21/10:00pm 5.8 SE 2 3 1028.3 - 0.0 - - - - - - -
21/09:30pm 6.0 SE 2 2 1028.6 - 0.0 - - - - - - -
21/09:00pm 6.5 SE 3 3 1028.9 - 0.0 - - - - - - -
21/08:30pm 8.1 SE 3 4 1028.9 - 0.0 - - - - - - -
21/08:00pm 8.2 SSE 4 5 1029.0 - 0.0 - - - - - - -
21/07:30pm 8.4 SSE 3 3 1029.0 - 0.0 - - - - - - -
21/07:00pm 9.4 S 5 6 1028.9 - 0.0 - - - - - - -
21/06:30pm 10.5 S 5 6 1028.8 - 0.0 - - - - - - -
21/06:00pm 12.0 S 5 6 1028.6 - 0.0 - - - - - - -
21/05:30pm 13.8 S 6 7 1028.7 - 0.0 - - - - - - -
21/05:00pm 14.7 S 8 10 1028.6 - 0.0 - - - - - - -
21/04:30pm 15.6 S 8 11 1028.6 - 0.0 - - - - - - -
21/04:00pm 15.7 S 10 13 1028.5 - 0.0 - - - - - - -
21/03:30pm 17.1 SSW 7 9 1028.4 - 0.0 - - - - - - -
21/03:00pm 17.2 SSE 4 9 1028.8 - 0.0 - - - - - - -
21/02:30pm 16.9 S 5 8 1028.9 - 0.0 - - - - - - -
21/02:00pm 16.9 S 5 8 1029.3 - 0.0 - - - - - - -
21/01:30pm 16.4 S 5 8 1029.9 - 0.0 - - - - - - -
21/01:00pm 16.6 SSW 5 7 1030.3 - 0.0 - - - - - - -
21/12:30pm 16.6 SSW 3 5 1030.9 - 0.0 - - - - - - -
21/12:00pm 16.0 SSW 5 8 1031.2 - 0.0 - - - - - - -

Other Formats:

Comma delimited format used in spreadsheet applications
http://www.bom.gov.au/fwo/IDS60701/IDS60701.95816.axf

JavaScript Object Notation format (JSON) in row-major order
http://www.bom.gov.au/fwo/IDS60701/IDS60701.95816.json